createdAt,value
2019-01-05T00:03:07.890Z,71.7
2019-01-05T00:04:07.786Z,72.4
2019-01-05T00:05:07.714Z,72.8
2019-01-05T00:06:07.645Z,72.9
2019-01-05T00:07:07.548Z,73.3
2019-01-05T00:08:07.431Z,73.2
2019-01-05T00:09:07.318Z,73.1
2019-01-05T00:10:07.248Z,73.3
2019-01-05T00:11:07.160Z,73.5
2019-01-05T00:12:07.050Z,73.8
2019-01-05T00:13:07.360Z,73.8
2019-01-05T00:14:07.252Z,73.8
2019-01-05T00:15:07.130Z,73.7
2019-01-05T00:16:07.048Z,73.9
2019-01-05T00:17:06.924Z,73.8
2019-01-05T00:18:06.773Z,73.9
2019-01-05T00:19:06.723Z,74.1
2019-01-05T00:20:06.622Z,74.1
2019-01-05T00:21:06.542Z,74.2
2019-01-05T00:22:06.422Z,74.6
2019-01-05T00:23:06.714Z,74.7
2019-01-05T00:24:06.613Z,74.7
2019-01-05T00:25:06.502Z,74.6
2019-01-05T00:26:06.384Z,74.6
2019-01-05T00:27:06.317Z,74.3
2019-01-05T00:28:06.213Z,74.6
2019-01-05T00:29:06.091Z,74.5
2019-01-05T00:30:06.025Z,74.9
2019-01-05T00:31:05.918Z,75.4
2019-01-05T00:32:05.819Z,74.5
2019-01-05T00:33:06.138Z,75
2019-01-05T00:34:06.044Z,75.1
2019-01-05T00:35:05.951Z,75
2019-01-05T00:36:05.834Z,74.9
2019-01-05T00:37:05.758Z,74.9
2019-01-05T00:38:05.636Z,74.7
2019-01-05T00:39:05.528Z,74.7
2019-01-05T00:40:05.401Z,74.5
2019-01-05T00:41:05.304Z,74.7
2019-01-05T00:42:05.182Z,74.7
2019-01-05T00:43:05.492Z,74.7
2019-01-05T00:44:05.387Z,74.9
2019-01-05T00:45:05.272Z,74.9
2019-01-05T00:46:05.138Z,74.7
2019-01-05T00:47:05.074Z,74.5
2019-01-05T00:48:04.986Z,74.6
2019-01-05T00:49:04.860Z,74.8
2019-01-05T00:50:04.732Z,74.6
2019-01-05T00:51:04.654Z,74.5
2019-01-05T00:52:04.532Z,75.3
2019-01-05T00:53:04.868Z,74.6
2019-01-05T00:54:04.760Z,74.3
2019-01-05T00:55:04.654Z,74.3
2019-01-05T00:56:04.538Z,74.4
2019-01-05T00:57:04.430Z,74.5
2019-01-05T00:58:04.314Z,74.7
2019-01-05T00:59:04.214Z,74.6
2019-01-05T01:00:04.113Z,74.9
2019-01-05T01:01:03.994Z,74.7
2019-01-05T01:02:03.884Z,74.7
2019-01-05T01:03:04.186Z,74.5
2019-01-05T01:04:04.061Z,74.7
2019-01-05T01:05:03.972Z,74.8
2019-01-05T01:06:03.850Z,74.9
2019-01-05T01:07:03.746Z,74.8
2019-01-05T01:08:03.627Z,74.9
2019-01-05T01:09:03.517Z,74.7
2019-01-05T01:10:03.410Z,75.1
2019-01-05T01:11:03.308Z,75
2019-01-05T01:12:03.230Z,75.1
2019-01-05T01:13:03.522Z,75
2019-01-05T01:14:03.418Z,75
2019-01-05T01:15:03.291Z,75.2
2019-01-05T01:16:03.212Z,74.9
2019-01-05T01:17:03.110Z,74.9
2019-01-05T01:18:02.984Z,74.6
2019-01-05T01:19:02.867Z,74.7
2019-01-05T01:20:02.796Z,74.7
2019-01-05T01:21:02.670Z,74.9
2019-01-05T01:22:02.595Z,74.7
2019-01-05T01:23:02.901Z,74.6
2019-01-05T01:24:02.786Z,74.1
2019-01-05T01:25:02.692Z,74.6
2019-01-05T01:26:02.592Z,74.7
2019-01-05T01:27:02.478Z,74.9
2019-01-05T01:28:02.384Z,74.8
2019-01-05T01:29:02.276Z,74.7
2019-01-05T01:30:02.159Z,74.6
2019-01-05T01:31:02.044Z,74.8
2019-01-05T01:32:01.938Z,74.8
2019-01-05T01:33:02.249Z,75
2019-01-05T01:34:02.136Z,74.7
2019-01-05T01:35:02.049Z,74.8
2019-01-05T01:36:01.964Z,75.2
2019-01-05T01:37:01.866Z,75.2
2019-01-05T01:38:01.749Z,75.4
2019-01-05T01:39:01.666Z,75.2
2019-01-05T01:40:01.545Z,74.9
2019-01-05T01:41:01.437Z,75.1
2019-01-05T01:42:01.328Z,75.3
2019-01-05T01:43:01.649Z,75.5
2019-01-05T01:44:01.571Z,75.5
2019-01-05T01:45:01.480Z,75.7
2019-01-05T01:46:01.380Z,75.4
2019-01-05T01:47:01.257Z,75.6
2019-01-05T01:48:01.137Z,75.8
2019-01-05T01:49:01.036Z,75.9
2019-01-05T01:50:00.937Z,75.8
2019-01-05T01:51:00.824Z,75.9
2019-01-05T01:52:00.713Z,76
2019-01-05T01:53:01.013Z,76.1
2019-01-05T01:54:00.900Z,75.7
2019-01-05T01:55:00.839Z,76
2019-01-05T01:56:00.729Z,75.9
2019-01-05T01:57:00.620Z,76.1
2019-01-05T01:58:00.495Z,76.4
2019-01-05T01:59:00.381Z,76.3
2019-01-05T02:00:00.287Z,76.5
2019-01-05T02:01:00.183Z,76.4
2019-01-05T02:02:00.075Z,76.4
2019-01-05T02:03:06.562Z,76.4
2019-01-05T02:04:06.441Z,76.4
2019-01-05T02:05:06.354Z,76.4
2019-01-05T02:06:06.271Z,76.3
2019-01-05T02:07:06.158Z,76.4
2019-01-05T02:08:06.033Z,76.6
2019-01-05T02:09:05.930Z,76.4
2019-01-05T02:10:05.831Z,76.8
2019-01-05T02:11:05.735Z,76.8
2019-01-05T02:12:05.628Z,76.8
2019-01-05T02:13:05.934Z,77
2019-01-05T02:14:05.842Z,77.2
2019-01-05T02:15:05.735Z,76.9
2019-01-05T02:16:05.626Z,77.2
2019-01-05T02:17:05.516Z,77.4
2019-01-05T02:18:05.412Z,77.3
2019-01-05T02:19:05.280Z,77.3
2019-01-05T02:20:05.162Z,77.4
2019-01-05T02:21:05.073Z,77.5
2019-01-05T02:22:05.006Z,77.7
2019-01-05T02:23:05.315Z,77.9
2019-01-05T02:24:05.201Z,78
2019-01-05T02:25:05.081Z,78.2
2019-01-05T02:26:04.975Z,78.3
2019-01-05T02:27:04.869Z,78.5
2019-01-05T02:28:04.757Z,78.6
2019-01-05T02:29:04.669Z,78.7
2019-01-05T02:30:04.565Z,78.7
2019-01-05T02:31:04.510Z,78.9
2019-01-05T02:32:04.450Z,79
2019-01-05T02:33:04.787Z,79.4
2019-01-05T02:34:04.685Z,79.3
2019-01-05T02:35:04.619Z,79.3
2019-01-05T02:36:04.507Z,79.6
2019-01-05T02:37:04.441Z,79.6
2019-01-05T02:38:04.342Z,79.4
2019-01-05T02:39:04.247Z,79.5
2019-01-05T02:40:04.149Z,79.5
2019-01-05T02:41:04.064Z,79.6
2019-01-05T02:42:04.000Z,79.6
2019-01-05T02:43:04.370Z,79.7
2019-01-05T02:44:04.251Z,79.8
2019-01-05T02:45:04.172Z,80
2019-01-05T02:46:04.068Z,79.9
2019-01-05T02:47:03.969Z,79.9
2019-01-05T02:48:03.866Z,79.7
2019-01-05T02:49:03.769Z,79.9
2019-01-05T02:50:03.686Z,79.8
2019-01-05T02:51:03.585Z,79.9
2019-01-05T02:52:03.484Z,79.9
2019-01-05T02:53:03.837Z,79.9
2019-01-05T02:54:03.724Z,80.1
2019-01-05T02:55:03.643Z,80.2
2019-01-05T02:56:03.550Z,79.9
2019-01-05T02:57:03.435Z,79.7
2019-01-05T02:58:03.318Z,79.4
2019-01-05T02:59:03.217Z,79.5
2019-01-05T03:00:03.152Z,79.5
2019-01-05T03:01:03.086Z,79.4
2019-01-05T03:02:02.992Z,79.5
2019-01-05T03:03:03.294Z,79.5
2019-01-05T03:04:03.204Z,79.4
2019-01-05T03:05:03.135Z,79.2
2019-01-05T03:06:03.038Z,79.1
2019-01-05T03:07:02.915Z,79
2019-01-05T03:08:02.796Z,79.3
2019-01-05T03:09:02.774Z,79.4
2019-01-05T03:10:02.679Z,79.5
2019-01-05T03:11:02.611Z,79.4
2019-01-05T03:12:02.556Z,79.1
2019-01-05T03:13:02.887Z,77.9
2019-01-05T03:14:02.779Z,78.1
2019-01-05T03:15:02.771Z,77.6
2019-01-05T03:16:02.696Z,77.6
2019-01-05T03:17:02.574Z,78.6
2019-01-05T03:18:02.482Z,77.8
2019-01-05T03:19:02.391Z,78
2019-01-05T03:20:02.356Z,78.3
2019-01-05T03:21:02.311Z,78.3
2019-01-05T03:22:02.201Z,78.2
2019-01-05T03:23:02.529Z,78.3
2019-01-05T03:24:02.423Z,78.2
2019-01-05T03:25:02.439Z,78.1
2019-01-05T03:26:02.387Z,77.3
2019-01-05T03:27:02.312Z,77.1
2019-01-05T03:30:01.726Z,75.3
2019-01-05T03:33:01.719Z,75
2019-01-05T03:34:01.717Z,75.8
2019-01-05T03:35:01.631Z,75.6
2019-01-05T03:36:01.529Z,76
2019-01-05T03:37:01.441Z,76.1
2019-01-05T03:38:01.374Z,76.2
2019-01-05T03:39:01.267Z,76.3
2019-01-05T03:40:01.172Z,76.6
2019-01-05T03:41:01.084Z,76.6
2019-01-05T03:42:00.995Z,76.5
2019-01-05T03:43:01.339Z,76.2
2019-01-05T03:44:01.233Z,76.5
2019-01-05T03:45:01.144Z,77
2019-01-05T03:46:01.046Z,77
2019-01-05T03:47:00.944Z,77.1
2019-01-05T03:48:00.885Z,77
2019-01-05T03:49:00.762Z,77.2
2019-01-05T03:50:00.654Z,76.8
2019-01-05T03:51:00.543Z,77.1
2019-01-05T03:52:00.450Z,77.1
2019-01-05T03:53:00.790Z,77
2019-01-05T03:54:00.731Z,77.2
2019-01-05T03:55:00.628Z,77.2
2019-01-05T03:56:00.528Z,77.1
2019-01-05T03:57:00.418Z,77.4
2019-01-05T03:58:00.300Z,77.6
2019-01-05T03:59:00.224Z,77.5
2019-01-05T04:00:00.310Z,77.6
2019-01-05T04:01:00.186Z,77.6
2019-01-05T04:02:00.070Z,77.4
2019-01-05T04:03:00.395Z,77.7
2019-01-05T04:04:00.308Z,78.1
2019-01-05T04:05:00.227Z,77.7
2019-01-05T04:06:00.130Z,78
2019-01-05T04:07:00.032Z,77.8
2019-01-05T04:07:59.924Z,77.4
2019-01-05T04:08:59.816Z,77.8
2019-01-05T04:09:59.719Z,77.8
2019-01-05T04:10:59.616Z,78.2
2019-01-05T04:11:59.536Z,78.3
2019-01-05T04:12:59.894Z,78.3
2019-01-05T04:13:59.807Z,78.1
2019-01-05T04:14:59.745Z,78.2
2019-01-05T04:15:59.651Z,78.5
2019-01-05T04:16:59.595Z,78
2019-01-05T04:17:59.485Z,78.4
2019-01-05T04:18:59.381Z,78.3
2019-01-05T04:19:59.272Z,78.6
2019-01-05T04:20:59.208Z,78.8
2019-01-05T04:21:59.094Z,78.7
2019-01-05T04:22:59.397Z,78.7
2019-01-05T04:23:59.275Z,78.9
2019-01-05T04:24:59.174Z,78.1
2019-01-05T04:31:57.535Z,75.5
2019-01-05T04:32:57.869Z,75.5
2019-01-05T04:33:57.760Z,76.1
2019-01-05T04:34:57.646Z,76.2
2019-01-05T04:35:57.516Z,76.3
2019-01-05T04:36:57.456Z,76.2
2019-01-05T04:37:57.361Z,76.5
2019-01-05T04:38:57.252Z,76.5
2019-01-05T04:39:57.131Z,76.5
2019-01-05T04:40:57.013Z,76.8
2019-01-05T04:41:56.898Z,77
2019-01-05T04:42:57.251Z,76.9
2019-01-05T04:43:57.144Z,76.9
2019-01-05T04:44:57.022Z,77
2019-01-05T04:45:56.921Z,76.3
2019-01-05T04:47:56.545Z,75.6
2019-01-05T04:51:55.663Z,75.2
2019-01-05T04:52:55.947Z,75
2019-01-05T04:53:55.848Z,75.1
2019-01-05T04:58:54.744Z,73.9
2019-01-05T05:02:54.214Z,74.4
2019-01-05T05:03:54.135Z,75.4
2019-01-05T05:04:54.052Z,75.8
2019-01-05T05:05:53.936Z,76.1
2019-01-05T05:06:53.822Z,76.2
2019-01-05T05:07:53.722Z,76.5
2019-01-05T05:08:53.604Z,76.4
2019-01-05T05:09:53.543Z,76.8
2019-01-05T05:10:53.426Z,77.2
2019-01-05T05:11:53.316Z,77.7
2019-01-05T05:12:53.657Z,77.8
2019-01-05T05:13:53.544Z,78.1
2019-01-05T05:14:53.430Z,78.1
2019-01-05T05:15:53.343Z,78.4
2019-01-05T05:16:53.232Z,77.4
2019-01-05T05:17:53.136Z,77.1
2019-01-05T05:18:53.040Z,76.5
2019-01-05T05:21:52.421Z,75.5
2019-01-05T05:22:52.746Z,75.3
2019-01-05T05:24:52.366Z,74.7
2019-01-05T05:25:52.281Z,74.9
2019-01-05T05:26:52.233Z,74.8
2019-01-05T05:28:51.866Z,75.2
2019-01-05T05:31:51.250Z,75.9
2019-01-05T05:32:51.562Z,76
2019-01-05T05:33:51.448Z,75.6
2019-01-05T05:36:51.332Z,75.4
2019-01-05T05:37:51.262Z,74.6
2019-01-05T05:38:51.146Z,74.4
2019-01-05T05:41:50.508Z,74.1
2019-01-05T05:42:50.864Z,74.1
2019-01-05T05:43:50.777Z,75.2
2019-01-05T05:44:50.652Z,75.3
2019-01-05T05:45:50.541Z,75.1
2019-01-05T05:46:50.427Z,75.2
2019-01-05T05:47:50.320Z,75.2
2019-01-05T05:48:50.239Z,75.5
2019-01-05T05:49:50.123Z,75.6
2019-01-05T05:50:50.025Z,75.9
2019-01-05T05:51:49.934Z,75.9
2019-01-05T05:52:50.262Z,76.4
2019-01-05T05:53:50.239Z,76.4
2019-01-05T05:54:50.165Z,76.7
2019-01-05T05:55:50.093Z,76.5
2019-01-05T05:56:50.005Z,76.8
2019-01-05T05:57:49.900Z,77.1
2019-01-05T05:58:49.818Z,77.2
2019-01-05T05:59:49.705Z,77.1
2019-01-05T06:00:49.652Z,77.3
2019-01-05T06:01:49.560Z,77.4
2019-01-05T06:02:49.884Z,77.6
2019-01-05T06:03:49.765Z,77.8
2019-01-05T06:04:49.666Z,77.7
2019-01-05T06:05:49.550Z,78.1
2019-01-05T06:06:49.445Z,78.3
2019-01-05T06:07:49.323Z,78.3
2019-01-05T06:08:49.214Z,78.5
2019-01-05T06:09:49.104Z,78.3
2019-01-05T06:10:48.972Z,79.4
2019-01-05T06:11:48.852Z,78.9
2019-01-05T06:12:49.183Z,79.1
2019-01-05T06:13:49.056Z,79.4
2019-01-05T06:14:48.973Z,79.7
2019-01-05T06:15:48.872Z,80.1
2019-01-05T06:16:48.749Z,80.1
2019-01-05T06:17:48.628Z,81
2019-01-05T06:18:48.506Z,81.5
2019-01-05T06:19:48.379Z,81.6
2019-01-05T06:20:48.306Z,81.9
2019-01-05T06:21:48.205Z,82.4
2019-01-05T06:22:48.497Z,82.5
2019-01-05T06:23:48.368Z,82.5
2019-01-05T06:24:48.253Z,82.8
2019-01-05T06:25:48.161Z,82.4
2019-01-05T06:28:47.475Z,81
2019-01-05T06:29:47.373Z,81.1
2019-01-05T06:32:47.167Z,80.7
2019-01-05T06:33:47.047Z,81.3
2019-01-05T06:34:46.928Z,81.6
2019-01-05T06:35:46.829Z,81.8
2019-01-05T06:36:46.767Z,82.1
2019-01-05T06:37:46.662Z,82.2
2019-01-05T06:38:46.541Z,82.7
2019-01-05T06:39:46.417Z,82.6
2019-01-05T06:40:46.301Z,83.1
2019-01-05T06:41:46.199Z,83.5
2019-01-05T06:42:46.527Z,83.9
2019-01-05T06:43:46.407Z,84.5
2019-01-05T06:44:46.295Z,84.7
2019-01-05T06:45:46.163Z,85
2019-01-05T06:46:46.061Z,85.1
2019-01-05T06:47:45.953Z,85.4
2019-01-05T06:48:45.881Z,85.4
2019-01-05T06:49:45.791Z,86
2019-01-05T06:50:45.671Z,86.2
2019-01-05T06:51:45.586Z,86.4
2019-01-05T06:52:45.891Z,87.5
2019-01-05T06:53:45.764Z,86.8
2019-01-05T06:54:45.643Z,86.9
2019-01-05T06:55:45.547Z,87.2
2019-01-05T06:56:45.467Z,87
2019-01-05T06:57:45.356Z,87.3
2019-01-05T06:58:45.245Z,87.5
2019-01-05T06:59:45.127Z,87.2
2019-01-05T07:00:45.037Z,87.3
2019-01-05T07:01:44.929Z,87.2
2019-01-05T07:02:45.225Z,87.4
2019-01-05T07:03:45.121Z,87.8
2019-01-05T07:04:45.015Z,88.4
2019-01-05T07:05:44.889Z,88
2019-01-05T07:06:46.157Z,87.6
2019-01-05T07:07:46.052Z,87.6
2019-01-05T07:08:45.941Z,87.4
2019-01-05T07:09:45.841Z,87.6
2019-01-05T07:10:45.735Z,87.7
2019-01-05T07:11:45.611Z,87.8
2019-01-05T07:12:45.961Z,88.1
2019-01-05T07:13:45.877Z,87.9
2019-01-05T07:14:45.771Z,88.2
2019-01-05T07:15:45.648Z,88.3
2019-01-05T07:16:45.546Z,88.9
2019-01-05T07:17:45.469Z,87.6
2019-01-05T07:18:45.353Z,87.4
2019-01-05T07:19:45.236Z,87.2
2019-01-05T07:20:45.125Z,87.7
2019-01-05T07:21:45.009Z,88.2
2019-01-05T07:22:45.293Z,88.3
2019-01-05T07:23:45.205Z,88.5
2019-01-05T07:24:45.101Z,87.9
2019-01-05T07:25:44.990Z,88.7
2019-01-05T07:26:44.897Z,89
2019-01-05T07:27:44.793Z,88.6
2019-01-05T07:28:44.708Z,88.9
2019-01-05T07:29:44.597Z,88.6
2019-01-05T07:30:44.475Z,88.7
2019-01-05T07:31:47.075Z,88.6
2019-01-05T07:32:47.389Z,89.2
2019-01-05T07:33:47.290Z,89.4
2019-01-05T07:34:47.184Z,89
2019-01-05T07:35:47.067Z,89.5
2019-01-05T07:36:46.963Z,89.2
2019-01-05T07:37:46.856Z,88.7
2019-01-05T07:38:46.764Z,88.5
2019-01-05T07:39:46.687Z,88.4
2019-01-05T07:40:46.585Z,88.2
2019-01-05T07:41:46.457Z,88.9
2019-01-05T07:42:46.743Z,89
2019-01-05T07:43:46.644Z,89
2019-01-05T07:44:46.546Z,89.5
2019-01-05T07:45:46.449Z,88.5
2019-01-05T07:46:46.329Z,88.5
2019-01-05T07:47:46.215Z,88.3
2019-01-05T07:48:46.095Z,88.7
2019-01-05T07:49:46.009Z,88.7
2019-01-05T07:50:45.897Z,88.9
2019-01-05T07:51:45.774Z,89.1
2019-01-05T07:52:46.119Z,89
2019-01-05T07:53:45.990Z,89.2
2019-01-05T07:54:45.885Z,88.9
2019-01-05T07:55:45.794Z,89.4
2019-01-05T07:56:45.687Z,89.1
2019-01-05T07:57:45.586Z,89.2
2019-01-05T07:58:45.463Z,88.7
2019-01-05T07:59:45.338Z,88.7
2019-01-05T08:00:45.258Z,89
2019-01-05T08:01:45.149Z,89.2
2019-01-05T08:02:45.461Z,89
2019-01-05T08:03:45.354Z,89.4
2019-01-05T08:04:45.226Z,88.5
2019-01-05T08:05:45.153Z,89.2
2019-01-05T08:06:45.073Z,89
2019-01-05T08:07:44.959Z,88.8
2019-01-05T08:08:44.826Z,88.6
2019-01-05T08:09:44.714Z,88.6
2019-01-05T08:10:44.589Z,89.5
2019-01-05T08:11:44.517Z,89.1
2019-01-05T08:12:44.853Z,89.2
2019-01-05T08:13:44.726Z,89.2
2019-01-05T08:14:44.593Z,89.3
2019-01-05T08:15:44.474Z,89.2
2019-01-05T08:16:44.384Z,88.8
2019-01-05T08:17:44.284Z,88.8
2019-01-05T08:18:44.158Z,89.2
2019-01-05T08:19:44.042Z,89.1
2019-01-05T08:20:43.935Z,89
2019-01-05T08:21:43.822Z,89
2019-01-05T08:22:44.162Z,89.4
2019-01-05T08:23:44.082Z,89.4
2019-01-05T08:24:43.970Z,89.1
2019-01-05T08:25:43.850Z,89.1
2019-01-05T08:26:43.721Z,89
2019-01-05T08:27:43.646Z,89.1
2019-01-05T08:28:43.603Z,89
2019-01-05T08:29:43.511Z,89.3
2019-01-05T08:30:43.397Z,89
2019-01-05T08:31:43.282Z,88.8
2019-01-05T08:32:43.614Z,89.4
2019-01-05T08:33:43.528Z,89.5
2019-01-05T08:34:43.445Z,89.6
2019-01-05T08:35:43.342Z,89
2019-01-05T08:36:43.264Z,88.9
2019-01-05T08:37:43.172Z,88.3
2019-01-05T08:39:42.824Z,87.4
2019-01-05T08:40:42.730Z,87.6
2019-01-05T08:41:42.620Z,87.4
2019-01-05T08:42:42.940Z,87.6
2019-01-05T08:43:42.840Z,88.5
2019-01-05T08:44:42.734Z,88.6
2019-01-05T08:45:42.618Z,88.6
2019-01-05T08:46:42.516Z,88.3
2019-01-05T08:47:42.396Z,87.5
2019-01-05T08:48:42.292Z,87.7
2019-01-05T08:49:42.174Z,88.3
2019-01-05T08:50:42.072Z,87.3
2019-01-05T08:51:41.954Z,87.4
2019-01-05T08:52:42.251Z,88.1
2019-01-05T08:53:42.170Z,87.7
2019-01-05T08:54:42.046Z,88.3
2019-01-05T08:55:41.926Z,88.9
2019-01-05T08:56:41.831Z,88.9
2019-01-05T08:57:41.713Z,88.7
2019-01-05T08:58:41.608Z,88.9
2019-01-05T08:59:41.525Z,89.1
2019-01-05T09:00:41.422Z,89.4
2019-01-05T09:01:41.298Z,89.6
2019-01-05T09:02:42.049Z,89.7
2019-01-05T09:03:42.153Z,89.9
2019-01-05T09:04:42.068Z,89.7
2019-01-05T09:05:41.953Z,89.9
2019-01-05T09:06:41.826Z,89.5
2019-01-05T09:07:41.714Z,89.3
2019-01-05T09:08:41.616Z,89.4
2019-01-05T09:09:41.523Z,89.2
2019-01-05T09:10:41.484Z,89.5
2019-01-05T09:11:41.376Z,89.5
2019-01-05T09:12:41.699Z,89.7
2019-01-05T09:13:41.603Z,89.8
2019-01-05T09:14:41.474Z,90
2019-01-05T09:15:41.380Z,90
2019-01-05T09:16:41.274Z,90.1
2019-01-05T09:17:41.180Z,90.3
2019-01-05T09:18:41.068Z,90.3
2019-01-05T09:19:40.954Z,90.3
2019-01-05T09:20:40.834Z,90.4
2019-01-05T09:21:40.746Z,90.4
2019-01-05T09:22:41.074Z,90.3
2019-01-05T09:23:40.969Z,90.5
2019-01-05T09:24:40.865Z,90.3
2019-01-05T09:25:42.096Z,90.3
2019-01-05T09:26:42.076Z,90.4
2019-01-05T09:27:42.057Z,90.2
2019-01-05T09:28:41.956Z,90.5
2019-01-05T09:29:41.856Z,90.5
2019-01-05T09:30:41.825Z,90.5
2019-01-05T09:31:41.730Z,90.4
2019-01-05T09:32:42.056Z,90.6
2019-01-05T09:33:41.947Z,90.5
2019-01-05T09:34:41.833Z,90.4
2019-01-05T09:35:41.738Z,90.4
2019-01-05T09:36:41.640Z,90.4
2019-01-05T09:37:41.609Z,90.6
2019-01-05T09:38:41.513Z,90.5
2019-01-05T09:39:41.390Z,90.6
2019-01-05T09:40:41.288Z,90.5
2019-01-05T09:41:41.195Z,90.5
2019-01-05T09:42:41.570Z,90.4
2019-01-05T09:43:41.460Z,90.5
2019-01-05T09:44:41.352Z,90.5
2019-01-05T09:45:41.240Z,90.3
2019-01-05T09:46:41.138Z,89.8
2019-01-05T09:47:41.068Z,89.3
2019-01-05T09:49:40.715Z,88.8
2019-01-05T09:52:40.531Z,88.1
2019-01-05T09:53:40.417Z,88.8
2019-01-05T09:54:40.331Z,88.8
2019-01-05T09:55:40.260Z,88.9
2019-01-05T09:56:40.136Z,88.8
2019-01-05T09:57:40.015Z,88.7
2019-01-05T09:58:39.937Z,88.3
2019-01-05T09:59:39.817Z,88.3
2019-01-05T10:00:39.705Z,88
2019-01-05T10:01:39.605Z,87.6
2019-01-05T10:02:39.925Z,87.6
2019-01-05T10:03:39.825Z,87.7
2019-01-05T10:04:39.730Z,87.9
2019-01-05T10:05:39.613Z,87.8
2019-01-05T10:06:39.527Z,87.6
2019-01-05T10:07:39.401Z,88
2019-01-05T10:08:39.327Z,87.5
2019-01-05T10:09:39.199Z,87.7
2019-01-05T10:10:39.117Z,88.8
2019-01-05T10:11:39.017Z,87.9
2019-01-05T10:12:39.416Z,87.8
2019-01-05T10:13:39.318Z,87.6
2019-01-05T10:14:39.231Z,87.4
2019-01-05T10:15:39.170Z,87.5
2019-01-05T10:16:39.059Z,87.6
2019-01-05T10:17:38.931Z,87.8
2019-01-05T10:18:38.813Z,87.8
2019-01-05T10:19:38.745Z,87.8
2019-01-05T10:20:38.631Z,88.1
2019-01-05T10:21:38.509Z,88.2
2019-01-05T10:22:38.833Z,88.4
2019-01-05T10:23:38.719Z,88.4
2019-01-05T10:24:38.635Z,87.6
2019-01-05T10:25:38.529Z,87.6
2019-01-05T10:26:38.440Z,87.3
2019-01-05T10:27:38.345Z,86.8
2019-01-05T10:28:38.241Z,86.8
2019-01-05T10:29:38.137Z,85.8
2019-01-05T10:30:38.057Z,85.7
2019-01-05T10:31:37.963Z,85.4
2019-01-05T10:32:38.278Z,85
2019-01-05T10:33:38.173Z,85
2019-01-05T10:34:38.043Z,84.7
2019-01-05T10:35:37.949Z,84.7
2019-01-05T10:36:37.859Z,84.2
2019-01-05T10:37:37.771Z,84
2019-01-05T10:38:37.673Z,84.4
2019-01-05T10:39:37.555Z,84.2
2019-01-05T10:40:37.458Z,83.4
2019-01-05T10:41:37.345Z,85.4
2019-01-05T10:42:37.671Z,83.6
2019-01-05T10:43:37.557Z,83.9
2019-01-05T10:44:37.450Z,83.4
2019-01-05T10:45:37.367Z,84
2019-01-05T10:46:37.258Z,83.2
2019-01-05T10:47:37.163Z,83.3
2019-01-05T10:48:37.055Z,83.4
2019-01-05T10:49:36.934Z,84
2019-01-05T10:50:36.831Z,83.7
2019-01-05T10:51:36.755Z,84.3
2019-01-05T10:52:37.095Z,84
2019-01-05T10:53:36.981Z,84.7
2019-01-05T10:54:36.880Z,84.8
2019-01-05T10:55:36.769Z,84.6
2019-01-05T10:56:36.666Z,85.2
2019-01-05T10:57:37.889Z,85.2
2019-01-05T10:58:37.779Z,85.3
2019-01-05T10:59:37.680Z,85.8
2019-01-05T11:00:37.592Z,85.7
2019-01-05T11:01:37.498Z,85.9
2019-01-05T11:02:37.862Z,86.1
2019-01-05T11:03:37.750Z,86.1
2019-01-05T11:04:37.659Z,86.1
2019-01-05T11:05:37.559Z,86.1
2019-01-05T11:06:37.447Z,86.3
2019-01-05T11:07:37.337Z,86.3
2019-01-05T11:08:37.253Z,85.8
2019-01-05T11:09:37.150Z,86.5
2019-01-05T11:10:37.035Z,87.2
2019-01-05T11:11:36.938Z,86.2
2019-01-05T11:12:37.330Z,86.1
2019-01-05T11:13:37.232Z,86.4
2019-01-05T11:14:37.148Z,86.9
2019-01-05T11:15:37.048Z,86
2019-01-05T11:16:36.950Z,86
2019-01-05T11:17:36.833Z,85.2
2019-01-05T11:18:36.737Z,85.2
2019-01-05T11:19:36.649Z,85.5
2019-01-05T11:20:36.666Z,85.2
2019-01-05T11:21:36.613Z,85.7
2019-01-05T11:22:36.963Z,84.7
2019-01-05T11:23:36.857Z,85.2
2019-01-05T11:24:36.778Z,85.4
2019-01-05T11:25:36.659Z,85.3
2019-01-05T11:26:36.600Z,85.5
2019-01-05T11:27:36.517Z,85.5
2019-01-05T11:28:36.420Z,86
2019-01-05T11:29:36.321Z,86.8
2019-01-05T11:30:36.258Z,87.7
2019-01-05T11:31:36.165Z,87
2019-01-05T11:32:36.512Z,87.2
2019-01-05T11:33:36.426Z,88
2019-01-05T11:34:36.356Z,88.2
2019-01-05T11:35:36.279Z,88.2
2019-01-05T11:36:36.194Z,89.1
2019-01-05T11:37:36.134Z,88.9
2019-01-05T11:38:36.038Z,88.9
2019-01-05T11:39:35.935Z,89.3
2019-01-05T11:40:35.954Z,90
2019-01-05T11:41:35.866Z,90.3
2019-01-05T11:42:36.214Z,90.1
2019-01-05T11:43:36.222Z,89.7
2019-01-05T11:44:36.240Z,89
2019-01-05T11:45:36.156Z,89.1
2019-01-05T11:46:36.124Z,89
2019-01-05T11:47:36.030Z,88.7
2019-01-05T11:48:35.947Z,89.2
2019-01-05T11:49:35.851Z,89.1
2019-01-05T11:50:35.777Z,89
2019-01-05T11:51:35.698Z,88.9
2019-01-05T11:52:36.074Z,88.6
2019-01-05T11:53:35.988Z,88.9
2019-01-05T11:54:35.961Z,88.8
2019-01-05T11:55:35.880Z,88.9
2019-01-05T11:56:35.822Z,89
2019-01-05T11:57:35.719Z,89.1
2019-01-05T11:58:35.629Z,89.3
2019-01-05T11:59:35.545Z,89.6
2019-01-05T12:00:35.463Z,89.9
2019-01-05T12:01:35.366Z,89.8
2019-01-05T12:02:35.720Z,89.9
2019-01-05T12:03:35.641Z,89.9
2019-01-05T12:04:35.576Z,89.8
2019-01-05T12:05:35.492Z,90.1
2019-01-05T12:06:35.780Z,89.5
2019-01-05T12:07:35.757Z,89.1
2019-01-05T12:08:35.674Z,88.9
2019-01-05T12:09:35.590Z,88.3
2019-01-05T12:10:35.518Z,88.1
2019-01-05T12:11:35.444Z,88.1
2019-01-05T12:12:35.792Z,88
2019-01-05T12:13:35.723Z,87.8
2019-01-05T12:14:35.668Z,87.8
2019-01-05T12:15:35.566Z,88
2019-01-05T12:17:41.262Z,87.5
2019-01-05T12:18:41.148Z,87.5
2019-01-05T12:19:41.035Z,87.1
2019-01-05T12:20:40.936Z,87.2
2019-01-05T12:21:40.836Z,86.9
2019-01-05T12:22:41.182Z,87.3
2019-01-05T12:23:41.112Z,87.6
2019-01-05T12:24:40.990Z,87.5
2019-01-05T12:25:40.883Z,87.9
2019-01-05T12:26:40.766Z,88
2019-01-05T12:27:40.664Z,88
2019-01-05T12:28:40.541Z,87.8
2019-01-05T12:29:40.438Z,88.1
2019-01-05T12:30:40.334Z,88.3
2019-01-05T12:31:40.230Z,88.1
2019-01-05T12:32:40.555Z,88.4
2019-01-05T12:33:40.454Z,88.5
2019-01-05T12:34:40.386Z,88.3
2019-01-05T12:35:40.292Z,88.5
2019-01-05T12:36:40.222Z,87.9
2019-01-05T12:37:40.108Z,87.9
2019-01-05T12:38:40.000Z,88
2019-01-05T12:39:39.889Z,88.5
2019-01-05T12:40:39.788Z,87.7
2019-01-05T12:41:39.686Z,88.1
2019-01-05T12:42:39.984Z,87.7
2019-01-05T12:43:39.886Z,88.2
2019-01-05T12:44:39.796Z,87.4
2019-01-05T12:46:39.440Z,87.6
2019-01-05T12:47:39.330Z,87.8
2019-01-05T12:48:39.215Z,86.6
2019-01-05T12:49:39.108Z,87.4
2019-01-05T12:50:39.001Z,86.8
2019-01-05T12:51:38.912Z,87.3
2019-01-05T12:52:39.206Z,86.7
2019-01-05T12:53:39.094Z,87.1
2019-01-05T12:54:38.979Z,87.5
2019-01-05T12:55:38.896Z,86.8
2019-01-05T12:56:38.787Z,86.7
2019-01-05T12:57:38.706Z,87
2019-01-05T12:58:38.601Z,87.3
2019-01-05T12:59:38.508Z,87.9
2019-01-05T13:00:38.394Z,87.8
2019-01-05T13:01:38.287Z,88.1
2019-01-05T13:02:38.616Z,89
2019-01-05T13:03:38.522Z,89.2
2019-01-05T13:04:38.392Z,89.1
2019-01-05T13:05:38.296Z,89.3
2019-01-05T13:06:38.189Z,89.6
2019-01-05T13:07:38.124Z,89.6
2019-01-05T13:08:38.010Z,89.7
2019-01-05T13:09:37.916Z,89.4
2019-01-05T13:10:37.807Z,89.8
2019-01-05T13:11:37.681Z,89.9
2019-01-05T13:12:38.038Z,90.1
2019-01-05T13:13:37.937Z,90
2019-01-05T13:14:39.510Z,90.3
2019-01-05T13:15:39.396Z,90.4
2019-01-05T13:16:39.292Z,90.3
2019-01-05T13:17:39.182Z,90.4
2019-01-05T13:18:39.094Z,90.4
2019-01-05T13:19:38.993Z,90.5
2019-01-05T13:20:38.896Z,90.6
2019-01-05T13:21:38.805Z,90.6
2019-01-05T13:22:39.118Z,90.8
2019-01-05T13:23:39.032Z,90.8
2019-01-05T13:24:38.937Z,90.8
2019-01-05T13:25:38.824Z,90.9
2019-01-05T13:26:38.752Z,91
2019-01-05T13:27:38.698Z,90.8
2019-01-05T13:28:38.779Z,90.7
2019-01-05T13:29:38.889Z,90.8
2019-01-05T13:30:38.802Z,91
2019-01-05T13:31:38.707Z,91
2019-01-05T13:32:39.032Z,90.9
2019-01-05T13:33:38.919Z,90.9
2019-01-05T13:34:38.803Z,90.9
2019-01-05T13:35:38.753Z,90.9
2019-01-05T13:36:38.628Z,90.9
2019-01-05T13:37:38.499Z,90.9
2019-01-05T13:38:38.406Z,91
2019-01-05T13:39:38.292Z,91
2019-01-05T13:40:38.200Z,91
2019-01-05T13:41:38.090Z,90.7
2019-01-05T13:42:38.432Z,90.6
2019-01-05T13:43:38.298Z,90.8
2019-01-05T13:44:38.193Z,90.8
2019-01-05T13:45:38.076Z,90.7
2019-01-05T13:46:37.958Z,90.7
2019-01-05T13:47:37.850Z,90.7
2019-01-05T13:48:37.735Z,90.6
2019-01-05T13:49:37.651Z,90.7
2019-01-05T13:50:37.541Z,90.6
2019-01-05T13:51:37.438Z,90.8
2019-01-05T13:52:37.754Z,90.7
2019-01-05T13:53:37.646Z,90.8
2019-01-05T13:54:37.532Z,90.6
2019-01-05T13:55:37.437Z,90.6
2019-01-05T13:56:37.333Z,90.6
2019-01-05T13:57:37.225Z,90.6
2019-01-05T13:58:37.098Z,90.5
2019-01-05T13:59:36.995Z,90.5
2019-01-05T14:00:36.911Z,90.7
2019-01-05T14:01:36.818Z,90.6
2019-01-05T14:02:37.134Z,90.6
2019-01-05T14:03:38.672Z,90.5
2019-01-05T14:04:38.551Z,90.5
2019-01-05T14:05:38.463Z,90.5
2019-01-05T14:06:38.346Z,90.5